Time;durP1;ratioP1;P1;durP2;ratioP2;P2;SDS_P1;SDS_P2;PMS_P1;PMS_P2;Temp;Humidity;BMP_temperature;BMP_pressure;BME280_temperature;BME280_humidity;BME280_pressure;Samples;Min_cycle;Max_cycle;Signal;HPM_P1;HPM_P2
2023/10/13 00:01:59;;;;;;;6.47;5.88;;;14.80;99.90;;;;;;5114411;28;20110;-65
2023/10/13 00:04:35;;;;;;;5.03;4.57;;;14.90;99.90;;;;;;5113798;28;20051;-65
2023/10/13 00:07:02;;;;;;;6.10;5.50;;;14.90;99.90;;;;;;5114180;28;20052;-65
2023/10/13 00:09:37;;;;;;;6.15;5.55;;;14.90;99.90;;;;;;5114130;28;20039;-65
2023/10/13 00:12:09;;;;;;;5.30;4.80;;;15.00;99.90;;;;;;5095656;28;20097;-65
2023/10/13 00:14:35;;;;;;;5.70;5.20;;;15.20;99.90;;;;;;5095710;28;20407;-65
2023/10/13 00:17:05;;;;;;;6.43;5.53;;;15.10;99.90;;;;;;5095480;28;20039;-65
2023/10/13 00:19:45;;;;;;;5.13;4.63;;;15.60;99.90;;;;;;5095851;28;20402;-65
2023/10/13 00:22:12;;;;;;;6.07;5.47;;;15.20;99.90;;;;;;5113751;28;20122;-65
2023/10/13 00:24:42;;;;;;;4.78;4.38;;;15.10;99.90;;;;;;5114008;28;20301;-65
2023/10/13 00:30:15;;;;;;;5.93;5.07;;;15.10;99.90;;;;;;5113830;28;20051;-65
2023/10/13 00:32:51;;;;;;;5.25;4.75;;;15.10;99.90;;;;;;5095518;28;20036;-67
2023/10/13 00:35:35;;;;;;;5.57;4.32;;;15.20;99.90;;;;;;5112275;28;20042;-67
2023/10/13 00:38:12;;;;;;;5.20;4.70;;;15.60;99.90;;;;;;5113446;28;20043;-67
2023/10/13 00:40:42;;;;;;;5.82;5.05;;;15.20;99.90;;;;;;5113698;28;20120;-67
2023/10/13 00:46:07;;;;;;;6.43;5.07;;;15.30;99.90;;;;;;5113658;28;20054;-65
2023/10/13 00:48:42;;;;;;;5.30;4.55;;;15.40;99.90;;;;;;5095398;28;20052;-65
2023/10/13 00:51:13;;;;;;;5.80;5.30;;;15.40;99.90;;;;;;5113548;28;20042;-65
2023/10/13 00:53:44;;;;;;;5.72;4.88;;;15.60;99.90;;;;;;5095219;28;20125;-65
2023/10/13 00:56:18;;;;;;;7.05;4.68;;;15.40;99.90;;;;;;5113460;28;20039;-65
2023/10/13 00:58:46;;;;;;;4.63;4.22;;;15.50;99.90;;;;;;5078191;28;20403;-65
2023/10/13 01:01:18;;;;;;;5.10;4.60;;;15.50;99.90;;;;;;5113211;28;20115;-65
2023/10/13 01:03:55;;;;;;;4.97;4.57;;;15.60;99.90;;;;;;5113477;28;20043;-65
2023/10/13 01:06:25;;;;;;;5.07;4.57;;;15.60;99.90;;;;;;5094832;28;20411;-65
2023/10/13 01:08:57;;;;;;;5.05;4.55;;;15.90;99.90;;;;;;5113024;28;20043;-65
2023/10/13 01:11:23;;;;;;;4.63;4.15;;;15.70;99.90;;;;;;5113168;28;20039;-65
2023/10/13 01:13:51;;;;;;;5.32;4.75;;;15.70;99.90;;;;;;5095060;28;20043;-67
2023/10/13 01:16:17;;;;;;;4.60;3.83;;;15.80;99.90;;;;;;5113426;28;20040;-67
2023/10/13 01:18:49;;;;;;;4.53;4.13;;;15.80;99.90;;;;;;5113185;28;20036;-67
2023/10/13 01:21:26;;;;;;;5.85;4.60;;;15.80;99.90;;;;;;5095072;28;20126;-67
2023/10/13 01:23:52;;;;;;;4.35;3.95;;;16.00;99.90;;;;;;5095076;28;20042;-68
2023/10/13 01:26:23;;;;;;;4.07;3.67;;;15.80;99.90;;;;;;5094780;28;20040;-67
2023/10/13 01:28:50;;;;;;;4.72;3.47;;;15.90;99.90;;;;;;5077851;28;20031;-67
2023/10/13 01:31:25;;;;;;;4.15;3.72;;;15.80;99.90;;;;;;5095029;28;20496;-67
2023/10/13 01:33:54;;;;;;;3.95;3.53;;;15.90;99.90;;;;;;5112910;28;20067;-67
2023/10/13 01:36:20;;;;;;;3.97;3.22;;;15.90;99.90;;;;;;5113161;28;20406;-67
2023/10/13 01:38:46;;;;;;;3.90;3.50;;;15.90;99.90;;;;;;5094609;28;20043;-67
2023/10/13 01:41:13;;;;;;;3.55;3.25;;;15.90;99.90;;;;;;5113157;28;20102;-67
2023/10/13 01:43:39;;;;;;;3.58;3.28;;;16.50;99.90;;;;;;5113043;28;20043;-67
2023/10/13 01:46:05;;;;;;;3.63;3.20;;;15.90;99.90;;;;;;5077700;28;20403;-67
2023/10/13 01:48:32;;;;;;;3.90;3.35;;;16.20;99.90;;;;;;5113076;28;20475;-67
2023/10/13 01:51:00;;;;;;;4.30;3.75;;;15.90;99.90;;;;;;5094362;28;20411;-67
2023/10/13 01:53:28;;;;;;;3.50;3.20;;;15.90;99.90;;;;;;5112673;28;20093;-67
2023/10/13 01:55:57;;;;;;;3.92;3.55;;;16.00;99.90;;;;;;5094427;28;20047;-68
2023/10/13 01:58:25;;;;;;;4.32;3.90;;;16.00;99.90;;;;;;5094512;28;20043;-67
2023/10/13 02:00:52;;;;;;;4.28;3.80;;;16.00;99.90;;;;;;5112582;28;20049;-67
2023/10/13 02:03:18;;;;;;;9.88;5.45;;;16.00;99.90;;;;;;5112715;28;20039;-67
2023/10/13 02:05:47;;;;;;;5.47;4.95;;;16.00;99.90;;;;;;5112572;28;20184;-67
2023/10/13 02:08:17;;;;;;;5.18;4.20;;;15.90;99.90;;;;;;5114120;28;20089;-67
2023/10/13 02:10:43;;;;;;;5.28;4.38;;;16.00;99.90;;;;;;5116785;28;20050;-67
2023/10/13 02:13:16;;;;;;;7.40;5.18;;;16.00;99.90;;;;;;5116631;28;20048;-65
2023/10/13 02:15:44;;;;;;;5.13;4.72;;;16.00;99.90;;;;;;5097919;28;20062;-65
2023/10/13 02:18:20;;;;;;;5.45;4.10;;;16.00;99.90;;;;;;5098170;28;20050;-65
2023/10/13 02:20:54;;;;;;;4.82;4.20;;;16.10;99.90;;;;;;5097814;28;20044;-65
2023/10/13 02:23:20;;;;;;;4.63;4.22;;;16.10;99.90;;;;;;5097823;28;20120;-67
2023/10/13 02:25:46;;;;;;;5.10;4.68;;;16.10;99.90;;;;;;5116290;28;20118;-67
2023/10/13 02:28:21;;;;;;;5.10;4.70;;;16.10;99.90;;;;;;5115914;28;20558;-67
2023/10/13 02:30:50;;;;;;;4.85;4.15;;;16.30;99.90;;;;;;5097570;28;20043;-67
2023/10/13 02:33:29;;;;;;;5.22;4.72;;;16.10;99.90;;;;;;5116119;28;20116;-67
2023/10/13 02:35:58;;;;;;;5.25;4.85;;;16.60;99.90;;;;;;5116038;28;20130;-67
2023/10/13 02:38:34;;;;;;;5.03;4.63;;;16.10;99.90;;;;;;5097526;28;20036;-67
2023/10/13 02:41:06;;;;;;;4.57;4.18;;;16.10;99.90;;;;;;5080830;28;20048;-67
2023/10/13 02:43:36;;;;;;;5.22;4.82;;;16.10;99.90;;;;;;5114704;28;20043;-67
2023/10/13 02:46:02;;;;;;;4.57;4.18;;;16.10;99.90;;;;;;5097221;28;20040;-67
2023/10/13 02:48:45;;;;;;;6.07;5.07;;;16.10;99.90;;;;;;5115803;28;20068;-67
2023/10/13 02:51:18;;;;;;;4.43;4.03;;;16.10;99.90;;;;;;5097249;28;20051;-67
2023/10/13 02:53:52;;;;;;;4.65;4.25;;;16.10;99.90;;;;;;5097508;28;20044;-67
2023/10/13 02:56:20;;;;;;;4.03;3.65;;;16.10;99.90;;;;;;5115640;28;20071;-67
2023/10/13 02:59:05;;;;;;;4.72;4.32;;;16.10;99.90;;;;;;5115674;28;20082;-67
2023/10/13 03:01:35;;;;;;;5.43;4.13;;;16.20;99.90;;;;;;5115360;28;20036;-67
2023/10/13 03:04:02;;;;;;;4.90;4.50;;;16.10;99.90;;;;;;5115096;28;20073;-68
2023/10/13 03:06:32;;;;;;;4.28;3.97;;;16.20;99.90;;;;;;5096941;28;20058;-67
2023/10/13 03:09:18;;;;;;;4.40;4.03;;;16.10;99.90;;;;;;5096817;28;20403;-68
2023/10/13 03:11:50;;;;;;;4.57;4.22;;;16.10;99.90;;;;;;5115434;28;20111;-67
2023/10/13 03:14:26;;;;;;;3.72;3.42;;;16.20;99.90;;;;;;5115315;28;20107;-67
2023/10/13 03:17:06;;;;;;;4.10;3.75;;;16.20;99.90;;;;;;5115253;28;20052;-67
2023/10/13 03:19:36;;;;;;;4.53;4.13;;;16.20;99.90;;;;;;5095865;28;20040;-67
2023/10/13 03:22:12;;;;;;;;;;;16.20;99.90;;;;;;5097187;28;20081;-67
2023/10/13 03:24:45;;;;;;;4.25;3.85;;;16.20;99.90;;;;;;5131058;27;19923;-67
2023/10/13 03:27:16;;;;;;;3.72;3.33;;;16.20;99.90;;;;;;5115083;28;20059;-67
2023/10/13 03:29:43;;;;;;;4.43;4.03;;;16.20;99.90;;;;;;5114903;28;20047;-67
2023/10/13 03:32:15;;;;;;;3.70;3.40;;;16.20;99.90;;;;;;5096657;28;20043;-67
2023/10/13 03:37:38;;;;;;;4.13;3.83;;;16.30;99.90;;;;;;5114863;28;20213;-65
2023/10/13 03:45:25;;;;;;;4.55;4.15;;;16.20;99.90;;;;;;5114747;28;20423;-65
2023/10/13 03:47:52;;;;;;;4.25;3.90;;;16.10;99.90;;;;;;5113117;28;20078;-65
2023/10/13 03:50:29;;;;;;;3.85;3.45;;;16.10;99.90;;;;;;5114584;28;20372;-65
2023/10/13 03:52:58;;;;;;;4.03;3.63;;;16.10;99.90;;;;;;5114531;28;20118;-65
2023/10/13 03:55:34;;;;;;;3.65;3.35;;;16.70;99.90;;;;;;5096084;28;20088;-65
2023/10/13 03:58:00;;;;;;;3.70;3.33;;;16.10;99.90;;;;;;5114417;28;20035;-65
2023/10/13 04:00:27;;;;;;;3.45;3.15;;;16.10;99.90;;;;;;5114428;28;20535;-65
2023/10/13 04:05:44;;;;;;;4.78;3.20;;;16.10;99.90;;;;;;5113800;28;20057;-65
2023/10/13 04:29:45;;;;;;;3.65;3.25;;;16.10;99.90;;;;;;5113625;28;20067;-65
2023/10/13 04:32:14;;;;;;;3.05;2.75;;;16.10;99.90;;;;;;5113523;28;20044;-65
2023/10/13 04:34:45;;;;;;;3.33;3.03;;;16.20;99.90;;;;;;5095574;28;20040;-65
2023/10/13 04:37:29;;;;;;;3.50;3.20;;;16.10;99.90;;;;;;5096388;28;20040;-65
2023/10/13 04:40:11;;;;;;;3.97;3.67;;;16.10;99.90;;;;;;5113401;28;20039;-65
2023/10/13 04:42:49;;;;;;;3.75;3.38;;;16.10;99.90;;;;;;5113726;28;20056;-65
2023/10/13 04:46:35;;;;;;;3.30;3.00;;;16.10;99.90;;;;;;5095347;28;20054;-65
2023/10/13 04:48:17;;;;;;;3.65;3.35;;;16.10;99.90;;;;;;5099662;28;20128;-65
2023/10/13 04:50:59;;;;;;;3.35;3.05;;;16.10;99.90;;;;;;5095045;28;20376;-65
2023/10/13 04:53:33;;;;;;;3.63;3.33;;;16.30;99.90;;;;;;5095368;28;20047;-65
2023/10/13 05:04:22;;;;;;;3.42;3.13;;;16.10;99.90;;;;;;5050260;28;20152;-65
2023/10/13 05:50:29;;;;;;;1.83;1.70;;;15.80;99.90;;;;;;5116602;28;20055;-64
2023/10/13 06:28:42;;;;;;;1.50;1.40;;;15.80;99.90;;;;;;5116173;28;20075;-66
2023/10/13 06:31:15;;;;;;;;;;;15.80;99.90;;;;;;5115333;28;20040;-65
2023/10/13 06:33:45;;;;;;;1.10;1.08;;;15.80;99.90;;;;;;5114660;28;19920;-65
2023/10/13 06:36:10;;;;;;;1.63;1.20;;;15.80;99.90;;;;;;5097649;28;20044;-65
2023/10/13 06:38:42;;;;;;;1.80;1.15;;;15.80;99.90;;;;;;5116088;28;20036;-65
2023/10/13 06:41:08;;;;;;;1.05;0.98;;;15.80;99.90;;;;;;5115741;28;20043;-64
2023/10/13 06:43:43;;;;;;;1.20;1.10;;;15.80;99.90;;;;;;5097805;28;20035;-64
2023/10/13 06:46:14;;;;;;;0.88;0.88;;;15.90;99.90;;;;;;5115885;28;20426;-65
2023/10/13 06:48:41;;;;;;;2.55;1.23;;;15.90;99.90;;;;;;5115933;28;20435;-65
2023/10/13 06:51:30;;;;;;;0.80;0.80;;;16.20;99.90;;;;;;5097185;28;20051;-65
2023/10/13 06:53:56;;;;;;;1.48;1.23;;;15.90;99.90;;;;;;5115015;28;20120;-65
2023/10/13 06:56:26;;;;;;;0.90;0.90;;;15.90;99.90;;;;;;5080294;28;20127;-65
2023/10/13 06:58:59;;;;;;;1.60;1.08;;;15.90;99.90;;;;;;5080200;28;20084;-65
2023/10/13 07:01:25;;;;;;;0.98;0.98;;;16.00;99.90;;;;;;5097131;28;20075;-65
2023/10/13 07:03:55;;;;;;;1.23;0.82;;;16.00;99.90;;;;;;5115729;28;20483;-65
2023/10/13 07:06:21;;;;;;;1.17;0.87;;;16.10;99.90;;;;;;5115118;28;20052;-65
2023/10/13 07:08:54;;;;;;;0.70;0.70;;;16.10;99.90;;;;;;5096875;28;20530;-65
2023/10/13 07:11:34;;;;;;;0.85;0.70;;;16.10;99.90;;;;;;5115354;28;20399;-65
2023/10/13 07:14:10;;;;;;;1.00;0.88;;;16.10;99.90;;;;;;5115534;28;20036;-66
2023/10/13 07:17:07;;;;;;;1.58;1.10;;;17.10;99.90;;;;;;5097059;28;20525;-67
2023/10/13 07:19:33;;;;;;;0.80;0.80;;;16.20;99.90;;;;;;5096711;28;20040;-66
2023/10/13 07:22:19;;;;;;;0.82;0.68;;;16.20;99.90;;;;;;5096908;28;20059;-66
2023/10/13 07:24:49;;;;;;;1.00;0.90;;;16.10;99.90;;;;;;5114897;28;20043;-65
2023/10/13 07:27:23;;;;;;;1.05;0.90;;;16.20;99.90;;;;;;5096622;28;20176;-65
2023/10/13 07:29:55;;;;;;;1.95;1.13;;;16.20;99.90;;;;;;5096633;28;20039;-65
2023/10/13 07:32:26;;;;;;;0.98;0.93;;;16.20;99.90;;;;;;5114726;28;20075;-65
2023/10/13 07:34:55;;;;;;;1.42;1.20;;;16.10;99.90;;;;;;5079647;28;20039;-66
2023/10/13 07:37:28;;;;;;;1.40;1.30;;;16.50;99.90;;;;;;5114828;28;20117;-67
2023/10/13 07:39:57;;;;;;;1.08;0.98;;;16.20;99.90;;;;;;5114877;28;20093;-66
2023/10/13 07:42:30;;;;;;;1.13;1.02;;;16.10;99.90;;;;;;5114818;28;20092;-67
2023/10/13 07:44:56;;;;;;;1.20;1.10;;;16.20;99.90;;;;;;5079558;28;20046;-66
2023/10/13 07:47:24;;;;;;;1.52;1.10;;;16.10;99.90;;;;;;5079093;28;20399;-66
2023/10/13 07:49:50;;;;;;;1.42;1.10;;;16.10;99.90;;;;;;5096416;28;20527;-66
2023/10/13 07:54:49;;;;;;;0.90;0.90;;;16.10;99.90;;;;;;5114557;28;20130;-66
2023/10/13 07:57:15;;;;;;;1.17;1.02;;;16.10;99.90;;;;;;5095921;28;20040;-66
2023/10/13 07:59:47;;;;;;;1.15;1.02;;;16.10;99.90;;;;;;5114186;28;20035;-66
2023/10/13 08:02:15;;;;;;;1.83;1.15;;;16.10;99.90;;;;;;5114422;28;20070;-66
2023/10/13 08:04:41;;;;;;;1.90;1.40;;;16.10;99.90;;;;;;5095107;28;20059;-66
2023/10/13 08:07:15;;;;;;;2.28;1.42;;;16.10;99.90;;;;;;5078888;28;20048;-67
2023/10/13 08:09:42;;;;;;;1.95;1.58;;;16.10;99.90;;;;;;5114216;28;20043;-66
2023/10/13 08:12:21;;;;;;;2.22;1.63;;;16.10;99.90;;;;;;5095770;28;20115;-66
2023/10/13 08:14:47;;;;;;;1.77;1.20;;;16.10;99.90;;;;;;5096105;28;20479;-65
2023/10/13 08:17:13;;;;;;;3.08;1.60;;;16.20;99.90;;;;;;5114164;28;20479;-65
2023/10/13 08:19:45;;;;;;;2.55;1.50;;;16.20;99.90;;;;;;5095561;28;20112;-65
2023/10/13 08:22:23;;;;;;;2.22;1.58;;;16.20;99.90;;;;;;5095466;28;20040;-65
2023/10/13 08:27:34;;;;;;;2.28;1.52;;;16.20;99.90;;;;;;5113977;28;20039;-65
2023/10/13 08:37:34;;;;;;;1.83;1.20;;;16.20;99.90;;;;;;5095335;28;20520;-65
2023/10/13 08:53:31;;;;;;;1.52;1.42;;;16.50;99.90;;;;;;5113567;28;20039;-66
2023/10/13 09:17:51;;;;;;;1.85;1.67;;;16.90;99.90;;;;;;5115171;28;20040;-65
2023/10/13 09:20:43;;;;;;;3.60;1.70;;;16.90;99.90;;;;;;5117225;28;20088;-65
2023/10/13 09:23:24;;;;;;;2.45;1.88;;;17.10;99.90;;;;;;5117464;28;20043;-65
2023/10/13 09:25:53;;;;;;;1.73;1.60;;;17.00;99.90;;;;;;5117215;28;20054;-66
2023/10/13 09:28:21;;;;;;;1.55;1.45;;;17.30;99.90;;;;;;5117395;28;20444;-66
2023/10/13 09:30:53;;;;;;;2.13;1.52;;;17.30;99.90;;;;;;5098670;28;20036;-66
2023/10/13 09:33:50;;;;;;;3.00;2.05;;;17.20;99.90;;;;;;5117432;28;20036;-66
2023/10/13 09:36:17;;;;;;;1.98;1.83;;;17.20;99.90;;;;;;5098718;28;20042;-66
2023/10/13 09:39:10;;;;;;;3.33;1.80;;;17.30;99.90;;;;;;5117233;28;20040;-67
2023/10/13 09:41:32;;;;;;;1.98;1.58;;;17.20;99.90;;;;;;5116684;28;20102;-66
2023/10/13 09:43:58;;;;;;;3.80;2.28;;;17.40;99.90;;;;;;5098473;28;20055;-66
2023/10/13 09:46:28;;;;;;;1.88;1.77;;;17.50;99.90;;;;;;5098497;28;20491;-66
2023/10/13 09:49:14;;;;;;;2.08;1.77;;;17.50;99.90;;;;;;5117042;28;20452;-66
2023/10/13 09:51:44;;;;;;;2.17;1.92;;;17.60;99.90;;;;;;5116985;28;20071;-66
2023/10/13 09:54:36;;;;;;;1.77;1.67;;;17.50;99.90;;;;;;5116907;28;20036;-66
2023/10/13 09:57:12;;;;;;;1.80;1.70;;;17.70;99.90;;;;;;5117026;28;20036;-66
2023/10/13 10:00:05;;;;;;;2.05;1.70;;;17.80;99.90;;;;;;5116865;28;20446;-65
2023/10/13 10:02:31;;;;;;;1.52;1.40;;;17.80;99.90;;;;;;5116353;28;20046;-65
2023/10/13 10:05:21;;;;;;;2.13;1.55;;;17.80;99.90;;;;;;5097973;28;20055;-65
2023/10/13 10:07:58;;;;;;;2.88;1.60;;;17.90;99.90;;;;;;5098004;28;20062;-65
2023/10/13 10:10:40;;;;;;;1.90;1.70;;;18.20;99.90;;;;;;5116375;28;20050;-65
2023/10/13 10:13:20;;;;;;;2.60;1.83;;;18.10;99.90;;;;;;5097875;28;20123;-65
2023/10/13 10:15:49;;;;;;;1.50;1.20;;;18.10;99.90;;;;;;5097894;28;20118;-65
2023/10/13 10:18:21;;;;;;;2.83;1.70;;;18.10;99.90;;;;;;5116460;28;20071;-64
2023/10/13 10:20:52;;;;;;;2.13;1.83;;;18.20;99.90;;;;;;5097903;28;20044;-65
2023/10/13 10:23:48;;;;;;;2.38;1.92;;;18.20;99.90;;;;;;5116137;28;20042;-64
2023/10/13 10:26:20;;;;;;;1.90;1.50;;;18.40;99.90;;;;;;5116394;28;20048;-64
2023/10/13 10:28:46;;;;;;;2.45;1.85;;;18.30;99.90;;;;;;5115727;28;20098;-64
2023/10/13 10:31:19;;;;;;;2.28;1.52;;;18.40;99.90;;;;;;5097603;28;20547;-64
2023/10/13 10:33:50;;;;;;;1.85;1.63;;;18.50;99.90;;;;;;5097659;28;20052;-64
2023/10/13 10:36:17;;;;;;;2.80;2.00;;;18.60;99.90;;;;;;5116232;28;20118;-66
2023/10/13 10:38:54;;;;;;;3.67;1.90;;;18.60;99.90;;;;;;5116148;28;20039;-66
2023/10/13 10:41:29;;;;;;;2.33;1.73;;;18.60;99.90;;;;;;5097531;28;20048;-66
2023/10/13 10:43:55;;;;;;;1.45;1.30;;;18.70;99.90;;;;;;5097314;28;20058;-67
2023/10/13 10:46:28;;;;;;;3.65;1.55;;;18.80;99.90;;;;;;5115987;28;20043;-67
2023/10/13 10:49:01;;;;;;;1.63;1.50;;;18.90;99.90;;;;;;5097333;28;20604;-67
2023/10/13 10:51:31;;;;;;;2.15;1.55;;;19.40;99.90;;;;;;5097161;28;20030;-67
2023/10/13 10:54:11;;;;;;;5.07;2.08;;;19.00;99.90;;;;;;5115692;28;20043;-67
2023/10/13 10:56:37;;;;;;;2.65;1.70;;;19.20;99.90;;;;;;5097373;28;20039;-67
2023/10/13 10:59:09;;;;;;;2.75;1.52;;;19.20;99.90;;;;;;5115340;28;20046;-67
2023/10/13 11:01:52;;;;;;;2.15;1.70;;;19.20;99.90;;;;;;5097011;28;20035;-67
2023/10/13 11:04:18;;;;;;;2.15;1.65;;;19.40;99.90;;;;;;5079922;28;20039;-67
2023/10/13 11:06:54;;;;;;;2.38;1.42;;;19.50;99.90;;;;;;5115333;28;20047;-65
2023/10/13 11:09:37;;;;;;;1.80;1.45;;;19.60;99.90;;;;;;5115374;28;20039;-65
2023/10/13 11:12:16;;;;;;;2.60;1.92;;;19.60;99.90;;;;;;5115128;28;20043;-68
2023/10/13 11:14:47;;;;;;;3.90;1.75;;;19.50;99.90;;;;;;5097367;28;20403;-69
2023/10/13 11:20:17;;;;;;;2.40;1.45;;;19.60;99.90;;;;;;5096632;28;20043;-66
2023/10/13 11:22:52;;;;;;;1.38;1.27;;;19.50;99.90;;;;;;5114902;28;20096;-66
2023/10/13 11:25:29;;;;;;;2.63;1.55;;;19.50;99.90;;;;;;5096899;28;20035;-66
2023/10/13 11:27:55;;;;;;;3.20;1.95;;;19.50;99.90;;;;;;5115156;28;20070;-66
2023/10/13 11:30:25;;;;;;;2.03;1.67;;;19.40;99.90;;;;;;5096413;28;20349;-65
2023/10/13 11:33:06;;;;;;;3.45;2.17;;;19.40;99.90;;;;;;5114797;28;20040;-66
2023/10/13 11:35:48;;;;;;;2.70;1.42;;;19.40;99.90;;;;;;5096469;28;20040;-65
2023/10/13 11:38:24;;;;;;;2.40;1.70;;;19.40;99.90;;;;;;5114920;28;20043;-65
2023/10/13 11:41:12;;;;;;;3.55;1.88;;;19.40;99.90;;;;;;5113664;28;20047;-65
2023/10/13 11:44:04;;;;;;;2.10;1.38;;;19.40;99.90;;;;;;5095542;28;20130;-66
2023/10/13 11:52:01;;;;;;;2.83;1.90;;;19.30;99.90;;;;;;5096299;28;20487;-68
2023/10/13 11:54:27;;;;;;;2.60;1.42;;;19.20;99.90;;;;;;5096095;28;20035;-66
2023/10/13 11:56:58;;;;;;;1.98;1.60;;;19.20;99.90;;;;;;5096202;28;20049;-66
2023/10/13 11:59:28;;;;;;;2.22;1.33;;;19.30;99.90;;;;;;5114524;28;20450;-66
2023/10/13 12:04:54;;;;;;;2.75;1.52;;;19.30;99.90;;;;;;5113988;28;20040;-66
2023/10/13 12:07:26;;;;;;;3.08;1.65;;;19.30;99.90;;;;;;5114393;28;20384;-66
2023/10/13 12:12:28;;;;;;;1.90;1.60;;;19.20;99.90;;;;;;5113969;28;20050;-66
2023/10/13 12:14:55;;;;;;;3.08;1.70;;;19.20;99.90;;;;;;5113850;28;20035;-66
2023/10/13 12:17:25;;;;;;;2.55;1.75;;;19.20;99.90;;;;;;5114308;28;20027;-66
2023/10/13 12:19:57;;;;;;;2.70;1.92;;;19.40;99.90;;;;;;5114209;28;20042;-66
2023/10/13 12:22:51;;;;;;;2.47;1.50;;;19.20;99.90;;;;;;5095883;28;20043;-66
2023/10/13 12:25:25;;;;;;;2.25;1.45;;;19.20;99.90;;;;;;5095001;28;20171;-69
2023/10/13 12:27:56;;;;;;;3.65;2.05;;;19.40;99.90;;;;;;5078537;28;20047;-66
2023/10/13 12:30:35;;;;;;;3.45;1.80;;;19.20;99.90;;;;;;5095336;28;20040;-66
2023/10/13 12:33:11;;;;;;;1.63;1.52;;;19.10;99.90;;;;;;5095673;28;20047;-66
2023/10/13 12:38:37;;;;;;;1.60;1.50;;;19.20;99.90;;;;;;5113799;28;20044;-68
2023/10/13 12:52:02;;;;;;;3.03;1.77;;;19.20;99.90;;;;;;5113087;28;20044;-67
2023/10/13 12:54:35;;;;;;;3.80;1.90;;;19.20;99.90;;;;;;5095057;28;20038;-66
2023/10/13 12:57:01;;;;;;;4.50;2.40;;;19.10;99.90;;;;;;5113703;28;20399;-65
2023/10/13 12:59:27;;;;;;;3.05;1.88;;;19.10;99.90;;;;;;5113617;28;20050;-65
2023/10/13 13:01:53;;;;;;;2.53;1.85;;;19.20;99.90;;;;;;5113559;28;20032;-66
2023/10/13 13:04:20;;;;;;;2.17;1.63;;;19.20;99.90;;;;;;5113250;28;20035;-66
2023/10/13 13:06:47;;;;;;;4.32;1.92;;;19.20;99.90;;;;;;5094999;28;20047;-66
2023/10/13 13:09:12;;;;;;;2.95;1.77;;;19.20;99.90;;;;;;5113395;28;20040;-66
2023/10/13 13:11:39;;;;;;;2.83;1.80;;;19.40;99.90;;;;;;5094881;28;20040;-66
2023/10/13 13:14:08;;;;;;;2.20;1.60;;;19.20;99.90;;;;;;5094701;28;20416;-65
2023/10/13 13:16:35;;;;;;;1.70;1.60;;;19.30;99.90;;;;;;5113428;28;20391;-65
2023/10/13 13:19:09;;;;;;;2.33;1.30;;;19.20;99.90;;;;;;5113300;28;20101;-66
2023/10/13 13:21:37;;;;;;;3.22;2.03;;;19.20;99.90;;;;;;5094783;28;20119;-66
2023/10/13 13:24:04;;;;;;;2.13;1.60;;;19.20;99.90;;;;;;5094890;28;20515;-66
2023/10/13 13:26:31;;;;;;;3.20;2.08;;;19.20;99.90;;;;;;5113113;28;20039;-66
2023/10/13 13:28:56;;;;;;;2.28;1.60;;;19.10;99.90;;;;;;5113288;28;20089;-66
2023/10/13 13:31:29;;;;;;;2.22;1.60;;;19.10;99.90;;;;;;5112899;28;20039;-65
2023/10/13 13:33:54;;;;;;;3.05;2.22;;;19.00;99.90;;;;;;5094931;28;20055;-66
2023/10/13 13:36:22;;;;;;;2.80;1.88;;;19.10;99.90;;;;;;5094835;28;20040;-66
2023/10/13 13:38:54;;;;;;;2.47;1.98;;;19.10;99.90;;;;;;5113171;28;20054;-66
2023/10/13 13:41:20;;;;;;;2.50;1.88;;;19.10;99.90;;;;;;5077824;28;20043;-68
2023/10/13 13:46:19;;;;;;;2.30;1.70;;;19.10;99.90;;;;;;5113179;28;20047;-67
2023/10/13 13:48:47;;;;;;;4.43;2.08;;;19.00;99.90;;;;;;5113054;28;20089;-67
2023/10/13 13:51:19;;;;;;;3.55;2.17;;;19.00;99.90;;;;;;5113033;28;20032;-67
2023/10/13 13:53:45;;;;;;;2.30;1.75;;;19.00;99.90;;;;;;5113143;28;20055;-67
2023/10/13 13:56:18;;;;;;;2.05;1.85;;;18.90;99.90;;;;;;5113030;28;20096;-67
2023/10/13 13:58:50;;;;;;;2.80;1.95;;;18.80;99.90;;;;;;5094594;28;20368;-68
2023/10/13 14:01:21;;;;;;;2.65;1.80;;;18.80;99.90;;;;;;5077822;28;20602;-67
2023/10/13 14:03:51;;;;;;;2.47;1.77;;;18.70;99.90;;;;;;5114842;28;20399;-67
2023/10/13 14:06:23;;;;;;;2.15;1.95;;;18.70;99.90;;;;;;5116315;28;20086;-66
2023/10/13 14:08:56;;;;;;;2.50;2.17;;;18.60;99.90;;;;;;5098179;28;20063;-67
2023/10/13 14:16:52;;;;;;;2.78;2.03;;;18.50;99.90;;;;;;5098248;28;20055;-67
2023/10/13 14:19:27;;;;;;;3.28;1.80;;;18.50;99.90;;;;;;5116602;28;20036;-67
2023/10/13 14:21:53;;;;;;;2.70;1.90;;;18.50;99.90;;;;;;5116485;28;20034;-67
2023/10/13 14:24:27;;;;;;;2.47;1.75;;;18.50;99.90;;;;;;5116161;28;20043;-66
2023/10/13 14:26:58;;;;;;;3.65;2.03;;;18.50;99.90;;;;;;5097940;28;20043;-67
2023/10/13 14:29:27;;;;;;;3.25;2.05;;;18.40;99.90;;;;;;5116089;28;20063;-66
2023/10/13 14:31:53;;;;;;;2.97;2.25;;;18.40;99.90;;;;;;5116307;28;20043;-67
2023/10/13 14:34:21;;;;;;;2.10;1.90;;;18.30;99.90;;;;;;5116269;28;20432;-67
2023/10/13 14:36:48;;;;;;;1.73;1.58;;;18.30;99.90;;;;;;5115912;28;20036;-67
2023/10/13 14:39:14;;;;;;;3.50;2.53;;;18.30;99.90;;;;;;5097839;28;20050;-67
2023/10/13 14:41:40;;;;;;;2.85;1.90;;;18.60;99.90;;;;;;5116043;28;20376;-67
2023/10/13 14:44:06;;;;;;;3.30;2.33;;;18.60;99.90;;;;;;5115961;28;20039;-67
2023/10/13 14:46:36;;;;;;;2.15;1.70;;;18.40;99.90;;;;;;5080475;28;20031;-67
2023/10/13 14:49:02;;;;;;;3.13;1.85;;;18.50;99.90;;;;;;5080638;28;20039;-67
2023/10/13 14:51:29;;;;;;;3.20;1.98;;;18.40;99.90;;;;;;5115646;28;20038;-66
2023/10/13 14:53:56;;;;;;;2.40;2.10;;;18.50;99.90;;;;;;5115659;28;20040;-66
2023/10/13 14:56:25;;;;;;;2.63;2.05;;;18.50;99.90;;;;;;5115751;28;20093;-66
2023/10/13 14:58:51;;;;;;;2.65;1.70;;;18.50;99.90;;;;;;5115692;28;20065;-66
2023/10/13 15:01:20;;;;;;;2.30;1.75;;;18.50;99.90;;;;;;5115538;28;20050;-66
2023/10/13 15:03:48;;;;;;;3.40;1.70;;;18.50;99.90;;;;;;5115393;28;20367;-66
2023/10/13 15:06:20;;;;;;;2.92;2.00;;;18.50;99.90;;;;;;5115053;28;20059;-66
2023/10/13 15:08:47;;;;;;;3.22;2.35;;;18.60;99.90;;;;;;5115115;28;20122;-66
2023/10/13 15:11:18;;;;;;;2.75;2.22;;;18.30;99.90;;;;;;5096811;28;20046;-65
2023/10/13 15:13:44;;;;;;;;;;;18.40;99.90;;;;;;5115795;28;20051;-65
2023/10/13 15:16:21;;;;;;;2.50;2.00;;;18.20;99.90;;;;;;5097068;28;20303;-65
2023/10/13 15:18:53;;;;;;;2.58;2.03;;;18.20;99.90;;;;;;5096752;28;20043;-71
2023/10/13 15:21:30;;;;;;;4.97;2.20;;;18.10;99.90;;;;;;5096833;28;20050;-66
2023/10/13 15:24:03;;;;;;;3.08;2.10;;;18.00;99.90;;;;;;5115308;28;20067;-66
2023/10/13 15:26:29;;;;;;;3.28;2.22;;;17.90;99.90;;;;;;5096402;28;20086;-68
2023/10/13 15:29:00;;;;;;;3.42;2.15;;;18.10;99.90;;;;;;5096207;28;20043;-66
2023/10/13 15:31:27;;;;;;;3.15;2.33;;;17.80;99.90;;;;;;5096459;28;20142;-67
2023/10/13 15:33:55;;;;;;;4.95;2.50;;;17.70;99.90;;;;;;5114890;28;20399;-67
2023/10/13 15:36:24;;;;;;;3.00;2.55;;;17.70;99.90;;;;;;5096386;28;20039;-67
2023/10/13 15:38:54;;;;;;;3.22;2.42;;;17.60;99.90;;;;;;5096448;28;20498;-69
2023/10/13 15:41:22;;;;;;;2.65;2.08;;;17.60;99.90;;;;;;5114895;28;20141;-66
2023/10/13 15:43:52;;;;;;;3.58;2.63;;;17.60;99.90;;;;;;5114578;28;20087;-67
2023/10/13 15:46:22;;;;;;;3.35;2.50;;;17.80;99.90;;;;;;5114866;28;20096;-66
2023/10/13 15:48:51;;;;;;;3.58;2.33;;;17.60;99.90;;;;;;5114437;28;20035;-66
2023/10/13 15:51:18;;;;;;;3.53;2.33;;;17.60;99.90;;;;;;5114441;28;20377;-66
2023/10/13 15:53:44;;;;;;;3.33;2.22;;;17.50;99.90;;;;;;5114676;28;20043;-68
2023/10/13 15:56:17;;;;;;;2.35;2.10;;;17.80;99.90;;;;;;5079202;28;20115;-66
2023/10/13 15:58:46;;;;;;;3.97;2.20;;;17.50;99.90;;;;;;5114663;28;20118;-66
2023/10/13 16:01:15;;;;;;;3.70;2.30;;;17.50;99.90;;;;;;5096069;28;20126;-66
2023/10/13 16:03:43;;;;;;;2.65;2.33;;;17.50;99.90;;;;;;5079105;28;20044;-66
2023/10/13 16:06:10;;;;;;;2.58;2.28;;;17.50;99.90;;;;;;5114123;28;20418;-65
2023/10/13 16:08:42;;;;;;;2.10;1.90;;;17.40;99.90;;;;;;5114432;28;20043;-66
2023/10/13 16:11:19;;;;;;;2.40;2.08;;;17.50;99.90;;;;;;5113946;28;20092;-66
2023/10/13 16:13:51;;;;;;;3.70;2.00;;;17.40;99.90;;;;;;5079449;28;20411;-67
2023/10/13 16:16:22;;;;;;;2.17;1.85;;;17.40;99.90;;;;;;5095950;28;20060;-65
2023/10/13 16:18:49;;;;;;;2.22;1.77;;;17.40;99.90;;;;;;5095983;28;20126;-65
2023/10/13 16:21:15;;;;;;;2.30;2.10;;;17.30;99.90;;;;;;5095700;28;20052;-66
2023/10/13 16:23:48;;;;;;;2.65;1.80;;;17.40;99.90;;;;;;5114124;28;20036;-69
2023/10/13 16:26:21;;;;;;;2.05;1.75;;;17.40;99.90;;;;;;5095114;28;20044;-66
2023/10/13 16:28:56;;;;;;;2.00;1.80;;;17.50;99.90;;;;;;5095535;28;20453;-65
2023/10/13 16:31:22;;;;;;;1.60;1.50;;;17.20;99.90;;;;;;5095502;28;20039;-65
2023/10/13 16:33:48;;;;;;;1.52;1.30;;;17.90;99.90;;;;;;5113913;28;20084;-65
2023/10/13 16:36:14;;;;;;;1.45;1.35;;;17.40;99.90;;;;;;5113886;28;20058;-65
2023/10/13 16:38:41;;;;;;;2.08;1.77;;;17.40;99.90;;;;;;5078440;28;20469;-65
2023/10/13 16:41:08;;;;;;;2.85;2.00;;;17.40;99.90;;;;;;5095345;28;20093;-66